Time;durP1;ratioP1;P1;durP2;ratioP2;P2;SDS_P1;SDS_P2;PMS_P1;PMS_P2;Temp;Humidity;BMP_temperature;BMP_pressure;BME280_temperature;BME280_humidity;BME280_pressure;Samples;Min_cycle;Max_cycle;Signal;HPM_P1;HPM_P2
2022/05/20 00:00:06;;;;;;;45.30;32.60;;;16.10;99.90;;;;;;5003783;28;20579;-70
2022/05/20 00:02:33;;;;;;;47.53;34.65;;;16.00;99.90;;;;;;5002468;28;20049;-69
2022/05/20 00:05:00;;;;;;;43.83;32.65;;;16.10;99.90;;;;;;5002571;28;20038;-70
2022/05/20 00:07:26;;;;;;;46.85;34.22;;;16.20;99.90;;;;;;5002401;28;20046;-71
2022/05/20 00:09:54;;;;;;;52.15;37.85;;;16.10;99.90;;;;;;5003713;28;20056;-71
2022/05/20 00:12:21;;;;;;;64.70;44.97;;;16.10;99.90;;;;;;5002921;28;20144;-70
2022/05/20 00:14:48;;;;;;;65.88;50.10;;;16.10;99.90;;;;;;5003336;28;20085;-70
2022/05/20 00:17:15;;;;;;;68.97;51.13;;;16.00;99.90;;;;;;5006620;28;20321;-71
2022/05/20 00:19:42;;;;;;;75.32;52.60;;;16.00;99.90;;;;;;5005630;28;20097;-70
2022/05/20 00:22:09;;;;;;;77.32;52.17;;;15.90;99.90;;;;;;5005593;28;20539;-71
2022/05/20 00:25:45;;;;;;;77.00;54.95;;;15.90;99.90;;;;;;5006622;28;20092;-70
2022/05/20 00:27:22;;;;;;;79.97;56.30;;;15.90;99.90;;;;;;5004831;28;20542;-70
2022/05/20 00:29:49;;;;;;;71.90;52.63;;;15.80;99.90;;;;;;5005455;28;20061;-71
2022/05/20 00:32:15;;;;;;;77.53;55.00;;;15.80;99.90;;;;;;5006118;28;20049;-71
2022/05/20 00:34:42;;;;;;;78.88;54.83;;;15.80;99.90;;;;;;5005774;28;20058;-69
2022/05/20 00:37:09;;;;;;;79.78;55.60;;;15.70;99.90;;;;;;5006262;28;20524;-69
2022/05/20 00:39:35;;;;;;;80.80;58.95;;;15.70;99.90;;;;;;5007289;28;20485;-70
2022/05/20 00:42:11;;;;;;;92.95;62.55;;;15.70;99.90;;;;;;5008824;28;20486;-69
2022/05/20 00:44:38;;;;;;;95.25;67.18;;;15.70;99.90;;;;;;5003986;28;20077;-70
2022/05/20 00:47:04;;;;;;;104.47;68.57;;;15.80;99.90;;;;;;5002707;28;20096;-70
2022/05/20 00:49:33;;;;;;;99.00;65.53;;;15.80;99.90;;;;;;5005949;28;20050;-70
2022/05/20 00:52:01;;;;;;;109.78;72.45;;;15.80;99.90;;;;;;5004519;28;20138;-71
2022/05/20 00:54:38;;;;;;;99.55;68.25;;;15.80;99.90;;;;;;5004662;28;20482;-70
2022/05/20 00:57:36;;;;;;;110.75;70.40;;;15.80;99.90;;;;;;5005050;28;20448;-70
2022/05/20 01:00:13;;;;;;;103.72;70.30;;;15.80;99.90;;;;;;4998417;28;20309;-70
2022/05/20 01:02:40;;;;;;;101.97;71.25;;;15.70;99.90;;;;;;5005241;28;20053;-71
2022/05/20 01:05:19;;;;;;;100.88;68.95;;;15.70;99.90;;;;;;5004639;28;20042;-70
2022/05/20 01:07:46;;;;;;;100.25;68.05;;;15.70;99.90;;;;;;5005137;28;20521;-71
2022/05/20 01:10:13;;;;;;;94.55;63.63;;;15.60;99.90;;;;;;5005306;28;20085;-69
2022/05/20 01:15:34;;;;;;;99.10;62.25;;;15.60;99.90;;;;;;4982843;28;20519;-74
2022/05/20 01:18:02;;;;;;;95.10;65.35;;;15.50;99.90;;;;;;4985551;28;20133;-73
2022/05/20 01:20:33;;;;;;;104.47;67.18;;;15.50;99.90;;;;;;4982364;28;20104;-71
2022/05/20 01:23:07;;;;;;;102.72;64.55;;;15.50;99.90;;;;;;4979385;28;20113;-72
2022/05/20 01:25:34;;;;;;;100.78;67.35;;;15.50;99.90;;;;;;4964620;28;20308;-72
2022/05/20 01:28:01;;;;;;;101.65;69.70;;;15.50;99.90;;;;;;4966338;28;20101;-73
2022/05/20 01:30:30;;;;;;;99.03;67.93;;;15.50;99.90;;;;;;4964981;28;20347;-71
2022/05/20 01:32:59;;;;;;;84.72;60.53;;;15.40;99.90;;;;;;4979317;28;20596;-73
2022/05/20 01:35:42;;;;;;;83.63;59.22;;;15.40;99.90;;;;;;4947501;28;20525;-74
2022/05/20 01:38:11;;;;;;;88.70;60.83;;;15.30;99.90;;;;;;4965958;28;20085;-72
2022/05/20 01:40:55;;;;;;;92.05;60.75;;;15.30;99.90;;;;;;4965890;28;20045;-71
2022/05/20 01:43:46;;;;;;;88.05;58.67;;;15.30;99.90;;;;;;4999367;28;20050;-73
2022/05/20 01:46:37;;;;;;;83.30;57.03;;;15.20;99.90;;;;;;4968518;28;20053;-72
2022/05/20 01:49:25;;;;;;;88.45;60.22;;;15.20;99.90;;;;;;4984231;28;20621;-73
2022/05/20 01:51:59;;;;;;;93.40;60.00;;;15.20;99.90;;;;;;4972974;28;20058;-73
2022/05/20 01:54:38;;;;;;;97.38;64.00;;;15.20;99.90;;;;;;4984250;28;20108;-71
2022/05/20 01:57:15;;;;;;;95.18;64.28;;;15.20;99.90;;;;;;4964282;28;20050;-71
2022/05/20 01:59:47;;;;;;;97.97;64.10;;;15.10;99.90;;;;;;4965412;28;20148;-71
2022/05/20 02:02:24;;;;;;;93.00;58.55;;;15.00;99.90;;;;;;4981460;28;20421;-73
2022/05/20 02:05:06;;;;;;;86.40;55.97;;;14.90;99.90;;;;;;4982379;28;20046;-73
2022/05/20 02:07:36;;;;;;;85.63;56.78;;;14.80;99.90;;;;;;4966619;28;20120;-72
2022/05/20 02:10:28;;;;;;;83.38;54.30;;;14.80;99.90;;;;;;4983834;28;20078;-73
2022/05/20 02:12:59;;;;;;;78.18;52.72;;;14.80;99.90;;;;;;4974883;28;20053;-70
2022/05/20 02:15:35;;;;;;;81.18;55.08;;;14.80;99.90;;;;;;4965662;28;20050;-73
2022/05/20 02:18:05;;;;;;;84.55;53.83;;;14.80;99.90;;;;;;4970148;28;20061;-71
2022/05/20 02:20:38;;;;;;;84.70;54.10;;;14.80;99.90;;;;;;4974603;28;20116;-72
2022/05/20 02:23:11;;;;;;;82.18;53.25;;;14.70;99.90;;;;;;4965094;28;20084;-75
2022/05/20 02:25:44;;;;;;;90.85;56.50;;;14.70;99.90;;;;;;4966350;28;20137;-73
2022/05/20 02:28:22;;;;;;;84.22;54.78;;;14.60;99.90;;;;;;4963848;28;20149;-74
2022/05/20 02:30:50;;;;;;;89.18;57.20;;;14.50;99.90;;;;;;4965865;28;20050;-74
2022/05/20 02:33:21;;;;;;;93.72;58.05;;;14.50;99.90;;;;;;4965356;28;20069;-75
2022/05/20 02:35:48;;;;;;;94.85;58.25;;;14.50;99.90;;;;;;4964516;28;20050;-75
2022/05/20 02:38:19;;;;;;;98.15;58.72;;;14.40;99.90;;;;;;4966392;28;20448;-75
2022/05/20 02:40:52;;;;;;;99.82;61.60;;;14.40;99.90;;;;;;4982150;28;20109;-73
2022/05/20 02:43:20;;;;;;;100.72;62.60;;;14.40;99.90;;;;;;4976045;28;20553;-74
2022/05/20 02:45:49;;;;;;;103.78;63.13;;;14.30;99.90;;;;;;4975587;28;20050;-72
2022/05/20 02:48:19;;;;;;;102.75;62.22;;;14.20;99.90;;;;;;4982064;28;20116;-74
2022/05/20 02:50:46;;;;;;;101.75;63.25;;;14.20;99.90;;;;;;4994678;28;20051;-73
2022/05/20 02:53:13;;;;;;;103.15;62.97;;;14.10;99.90;;;;;;4963897;28;20058;-73
2022/05/20 02:55:40;;;;;;;95.65;60.40;;;14.10;99.90;;;;;;4965123;28;20051;-74
2022/05/20 02:58:07;;;;;;;95.88;57.97;;;14.00;99.90;;;;;;4963285;28;20082;-74
2022/05/20 03:06:05;;;;;;;103.55;61.80;;;14.00;99.90;;;;;;4979216;28;20057;-74
2022/05/20 03:08:32;;;;;;;112.65;62.65;;;14.00;99.90;;;;;;4983961;28;20602;-74
2022/05/20 03:10:58;;;;;;;109.90;64.90;;;14.10;99.90;;;;;;4981694;28;20097;-71
2022/05/20 03:13:25;;;;;;;117.85;63.83;;;14.00;99.90;;;;;;4970705;28;20109;-72
2022/05/20 03:15:53;;;;;;;118.97;64.60;;;14.00;99.90;;;;;;4970844;28;20042;-73
2022/05/20 03:18:20;;;;;;;125.50;67.25;;;13.90;99.90;;;;;;4965496;28;20067;-72
2022/05/20 03:20:46;;;;;;;116.57;66.22;;;13.90;99.90;;;;;;4962197;28;20047;-74
2022/05/20 03:23:13;;;;;;;130.90;68.38;;;13.80;99.90;;;;;;4994489;28;20528;-74
2022/05/20 03:25:40;;;;;;;137.23;69.57;;;13.80;99.90;;;;;;4993801;28;20138;-73
2022/05/20 03:28:11;;;;;;;139.48;70.78;;;13.70;99.90;;;;;;4964349;28;20494;-74
2022/05/20 03:30:38;;;;;;;128.57;68.10;;;13.70;99.90;;;;;;4964020;28;20046;-73
2022/05/20 03:33:05;;;;;;;127.35;66.85;;;13.70;99.90;;;;;;4961625;28;20047;-74
2022/05/20 03:35:31;;;;;;;150.43;73.13;;;13.70;99.90;;;;;;4963497;28;20043;-74
2022/05/20 03:37:58;;;;;;;139.93;72.63;;;13.60;99.90;;;;;;4975955;28;20578;-72
2022/05/20 03:40:25;;;;;;;146.60;74.25;;;13.60;99.90;;;;;;4981472;28;22744;-74
2022/05/20 03:42:52;;;;;;;148.18;72.32;;;13.60;99.90;;;;;;4974679;28;20051;-74
2022/05/20 03:45:18;;;;;;;138.18;71.85;;;13.60;99.90;;;;;;4967799;28;20138;-73
2022/05/20 03:47:45;;;;;;;164.55;76.85;;;13.60;99.90;;;;;;4969325;28;20046;-75
2022/05/20 03:50:11;;;;;;;139.38;71.00;;;13.70;99.90;;;;;;4961345;28;20090;-73
2022/05/20 03:52:38;;;;;;;143.75;73.50;;;13.70;99.90;;;;;;4987727;28;20117;-73
2022/05/20 03:55:05;;;;;;;158.57;76.22;;;13.80;99.90;;;;;;4964705;28;20101;-73
2022/05/20 03:57:32;;;;;;;143.10;75.22;;;13.80;99.90;;;;;;4980552;28;20062;-73
2022/05/20 03:59:59;;;;;;;149.85;72.70;;;13.80;99.90;;;;;;4967166;28;20062;-73
2022/05/20 04:02:26;;;;;;;140.43;69.53;;;13.60;99.90;;;;;;4966263;28;20046;-72
2022/05/20 04:04:53;;;;;;;140.77;70.13;;;13.70;99.90;;;;;;4966759;28;20062;-74
2022/05/20 04:07:26;;;;;;;151.43;73.55;;;13.70;99.90;;;;;;4995594;28;20120;-74
2022/05/20 04:09:53;;;;;;;141.07;70.10;;;13.70;99.90;;;;;;4968395;28;20059;-75
2022/05/20 04:12:30;;;;;;;130.48;68.07;;;13.60;99.90;;;;;;4984892;28;20382;-74
2022/05/20 04:14:58;;;;;;;128.60;67.47;;;13.70;99.90;;;;;;4960700;28;20113;-73
2022/05/20 04:17:25;;;;;;;112.93;64.93;;;13.80;99.90;;;;;;4971711;28;20035;-73
2022/05/20 04:19:52;;;;;;;116.95;64.85;;;13.80;99.90;;;;;;4967310;28;20054;-74
2022/05/20 04:22:33;;;;;;;103.43;60.08;;;13.80;99.90;;;;;;4981824;28;20328;-73
2022/05/20 04:25:00;;;;;;;105.18;62.92;;;13.90;99.90;;;;;;4971457;28;20138;-73
2022/05/20 04:27:30;;;;;;;107.50;61.33;;;14.00;99.90;;;;;;4966360;28;20046;-74
2022/05/20 04:29:57;;;;;;;93.93;60.38;;;14.10;99.90;;;;;;4967413;28;20210;-74
2022/05/20 04:32:25;;;;;;;94.43;57.47;;;14.10;99.90;;;;;;4963707;28;20043;-74
2022/05/20 04:34:51;;;;;;;97.78;57.05;;;14.20;99.90;;;;;;4963345;28;20134;-74
2022/05/20 04:37:25;;;;;;;93.80;58.28;;;14.10;99.90;;;;;;4963668;28;20053;-73
2022/05/20 04:39:52;;;;;;;101.00;59.60;;;14.10;99.90;;;;;;4966742;28;20074;-73
2022/05/20 04:47:51;;;;;;;94.35;56.85;;;14.40;99.90;;;;;;4973610;28;20055;-74
2022/05/20 04:50:18;;;;;;;91.88;56.72;;;14.40;99.90;;;;;;4974231;28;20485;-74
2022/05/20 04:52:44;;;;;;;79.13;52.75;;;14.50;99.90;;;;;;4980253;28;20054;-74
2022/05/20 04:55:11;;;;;;;80.82;52.13;;;14.60;99.90;;;;;;4967643;28;20149;-72
2022/05/20 04:57:45;;;;;;;90.93;55.55;;;14.50;99.90;;;;;;4964580;28;20145;-74
2022/05/20 05:00:17;;;;;;;81.50;53.65;;;14.50;99.90;;;;;;4963831;28;20054;-73
2022/05/20 05:02:45;;;;;;;80.55;53.97;;;14.60;99.90;;;;;;4961960;28;20050;-74
2022/05/20 05:05:14;;;;;;;81.55;49.38;;;14.80;99.90;;;;;;4963969;28;20055;-74
2022/05/20 05:07:47;;;;;;;75.07;51.30;;;15.00;99.90;;;;;;4964009;28;20085;-74
2022/05/20 05:10:20;;;;;;;73.05;51.10;;;15.10;99.90;;;;;;4980384;28;20043;-73
2022/05/20 05:12:47;;;;;;;75.47;49.17;;;15.10;99.90;;;;;;4967030;28;20067;-73
2022/05/20 05:15:14;;;;;;;70.38;49.38;;;15.20;99.90;;;;;;4963732;28;20059;-73
2022/05/20 05:20:29;;;;;;;64.47;45.72;;;15.20;99.90;;;;;;4965713;28;20059;-73
2022/05/20 05:22:57;;;;;;;68.75;49.20;;;15.40;99.90;;;;;;4964729;28;20267;-75
2022/05/20 05:25:26;;;;;;;60.67;46.92;;;15.40;99.90;;;;;;4976825;28;20046;-74
2022/05/20 05:27:53;;;;;;;59.33;45.03;;;15.60;99.90;;;;;;4984700;28;20074;-74
2022/05/20 05:30:21;;;;;;;62.03;47.40;;;15.50;99.90;;;;;;4983069;28;20081;-73
2022/05/20 05:32:48;;;;;;;60.30;47.83;;;15.40;99.90;;;;;;4983127;28;20074;-73
2022/05/20 05:35:21;;;;;;;66.20;47.85;;;15.60;99.90;;;;;;4963845;28;20050;-72
2022/05/20 05:37:49;;;;;;;64.95;50.50;;;15.60;99.90;;;;;;4978565;28;20439;-71
2022/05/20 05:40:19;;;;;;;64.93;49.03;;;15.70;99.90;;;;;;4978817;28;20046;-74
2022/05/20 05:42:46;;;;;;;63.83;49.10;;;15.70;99.90;;;;;;4970836;28;20054;-71
2022/05/20 05:45:16;;;;;;;65.80;51.15;;;15.60;99.90;;;;;;4965855;28;20038;-73
2022/05/20 05:47:47;;;;;;;58.08;46.03;;;15.60;99.90;;;;;;4967956;28;20067;-72
2022/05/20 05:50:14;;;;;;;65.35;49.80;;;15.60;99.90;;;;;;4989805;28;20203;-73
2022/05/20 05:52:41;;;;;;;59.63;48.22;;;15.50;99.90;;;;;;4944359;28;20492;-72
2022/05/20 05:55:08;;;;;;;60.22;47.00;;;15.60;99.90;;;;;;4944710;28;20549;-71
2022/05/20 05:57:35;;;;;;;60.80;47.45;;;15.80;99.90;;;;;;4947568;28;20194;-72
2022/05/20 06:00:04;;;;;;;62.38;49.50;;;15.90;99.90;;;;;;4963636;28;20042;-73
2022/05/20 06:02:37;;;;;;;62.25;47.65;;;16.00;99.90;;;;;;4963845;28;20138;-71
2022/05/20 06:05:05;;;;;;;55.92;46.30;;;15.90;99.90;;;;;;4963787;28;20035;-72
2022/05/20 06:07:31;;;;;;;56.80;47.47;;;15.90;99.90;;;;;;4964900;28;20055;-74
2022/05/20 06:09:59;;;;;;;58.17;47.53;;;15.90;99.90;;;;;;4964591;28;20073;-72
2022/05/20 06:12:25;;;;;;;60.92;49.63;;;15.90;99.90;;;;;;4980732;28;20508;-73
2022/05/20 06:14:52;;;;;;;59.47;48.10;;;15.80;99.90;;;;;;4967941;28;20511;-71
2022/05/20 06:17:19;;;;;;;56.22;46.20;;;15.70;99.90;;;;;;4975973;28;20047;-73
2022/05/20 06:19:46;;;;;;;57.47;46.67;;;15.70;99.90;;;;;;4985413;28;20528;-74
2022/05/20 06:22:13;;;;;;;56.47;46.00;;;15.80;99.90;;;;;;4959044;28;20141;-73
2022/05/20 06:24:39;;;;;;;61.80;48.63;;;15.90;99.90;;;;;;4960313;28;20095;-72
2022/05/20 06:27:06;;;;;;;59.35;48.00;;;16.00;99.90;;;;;;4964006;28;20596;-73
2022/05/20 06:29:33;;;;;;;52.65;45.55;;;16.00;99.90;;;;;;4963576;28;20050;-73
2022/05/20 06:31:59;;;;;;;57.40;47.83;;;16.00;99.90;;;;;;4965251;28;20105;-73
2022/05/20 06:34:26;;;;;;;58.60;48.15;;;16.10;99.90;;;;;;4981994;28;20592;-73
2022/05/20 06:39:50;;;;;;;58.30;48.33;;;16.20;99.90;;;;;;4975814;28;20110;-73
2022/05/20 06:42:19;;;;;;;54.40;47.70;;;15.90;99.90;;;;;;4966614;28;20485;-73
2022/05/20 06:44:46;;;;;;;55.15;47.72;;;16.10;99.90;;;;;;4967515;28;20120;-73
2022/05/20 06:47:13;;;;;;;54.92;48.65;;;16.10;99.90;;;;;;4974012;28;20084;-73
2022/05/20 06:49:40;;;;;;;59.55;49.15;;;15.90;99.90;;;;;;4981005;28;20050;-73
2022/05/20 06:52:07;;;;;;;53.65;44.78;;;15.90;99.90;;;;;;4963755;28;20058;-72
2022/05/20 06:54:54;;;;;;;55.90;46.85;;;15.60;99.90;;;;;;4946122;28;20118;-73
2022/05/20 06:57:22;;;;;;;52.45;42.67;;;15.30;99.90;;;;;;4946020;28;20049;-73
2022/05/20 06:59:49;;;;;;;59.17;45.38;;;15.20;99.90;;;;;;4963335;28;20356;-73
2022/05/20 07:02:16;;;;;;;56.10;45.78;;;15.20;99.90;;;;;;4963735;28;20101;-73
2022/05/20 07:04:50;;;;;;;61.13;46.80;;;15.30;99.90;;;;;;4976608;28;20062;-73
2022/05/20 07:07:17;;;;;;;55.97;44.17;;;15.40;99.90;;;;;;4963861;28;20421;-73
2022/05/20 07:09:44;;;;;;;54.15;43.80;;;15.60;99.90;;;;;;4963883;28;20572;-73
2022/05/20 07:12:12;;;;;;;50.05;42.47;;;16.00;99.90;;;;;;4998459;28;20093;-73
2022/05/20 07:14:39;;;;;;;45.80;40.97;;;16.30;99.90;;;;;;4962978;28;20050;-73
2022/05/20 07:17:06;;;;;;;45.55;41.05;;;16.40;99.90;;;;;;4974059;28;20038;-73
2022/05/20 07:19:32;;;;;;;45.35;40.65;;;16.80;99.90;;;;;;4980483;28;20152;-71
2022/05/20 07:21:59;;;;;;;48.17;43.40;;;17.40;99.90;;;;;;4979384;28;20042;-72
2022/05/20 07:24:26;;;;;;;48.90;44.35;;;17.70;99.90;;;;;;4963513;28;20111;-76
2022/05/20 07:26:53;;;;;;;46.22;41.92;;;17.90;99.90;;;;;;4964452;28;20122;-74
2022/05/20 07:29:20;;;;;;;46.83;42.33;;;18.30;99.90;;;;;;4965541;28;20121;-74
2022/05/20 07:31:47;;;;;;;46.47;42.08;;;18.40;99.90;;;;;;4962153;28;20047;-73
2022/05/20 07:34:14;;;;;;;46.47;42.08;;;18.40;99.90;;;;;;4961797;28;20060;-74
2022/05/20 07:36:40;;;;;;;49.25;44.60;;;18.40;99.90;;;;;;4963072;28;20050;-74
2022/05/20 07:39:08;;;;;;;48.60;43.88;;;18.30;99.90;;;;;;4965186;28;20115;-73
2022/05/20 07:41:35;;;;;;;49.67;44.60;;;18.20;99.90;;;;;;4962447;28;20051;-73
2022/05/20 07:44:03;;;;;;;46.67;41.97;;;17.30;99.90;;;;;;4966046;28;20054;-73
2022/05/20 07:46:30;;;;;;;48.15;43.45;;;17.20;99.90;;;;;;4982656;28;20066;-74
2022/05/20 07:48:56;;;;;;;49.50;44.35;;;17.50;99.90;;;;;;4963149;28;20051;-73
2022/05/20 07:51:25;;;;;;;51.40;46.10;;;17.70;99.90;;;;;;4962553;28;20059;-73
2022/05/20 07:53:58;;;;;;;50.08;45.03;;;17.80;99.90;;;;;;4947266;28;20389;-72
2022/05/20 07:56:34;;;;;;;51.53;46.10;;;17.90;99.90;;;;;;4964085;28;20529;-74
2022/05/20 07:59:21;;;;;;;51.92;46.53;;;18.00;99.90;;;;;;4963740;28;20407;-73
2022/05/20 08:01:50;;;;;;;52.78;47.35;;;18.20;99.90;;;;;;4962291;28;20109;-74
2022/05/20 08:07:18;;;;;;;56.83;50.92;;;18.30;99.90;;;;;;4975525;28;20126;-73
2022/05/20 08:09:45;;;;;;;52.00;46.63;;;18.40;99.90;;;;;;4962533;28;20054;-72
2022/05/20 08:12:12;;;;;;;53.28;46.60;;;18.40;99.90;;;;;;4965783;28;20066;-71
2022/05/20 08:14:47;;;;;;;56.00;47.80;;;18.50;99.90;;;;;;4964392;28;20145;-73
2022/05/20 08:17:14;;;;;;;53.08;47.35;;;18.70;99.90;;;;;;4969649;28;20046;-73
2022/05/20 08:19:41;;;;;;;54.30;48.47;;;18.80;99.90;;;;;;4964845;28;20125;-73
2022/05/20 08:22:08;;;;;;;54.70;48.83;;;19.00;99.90;;;;;;4963955;28;20139;-73
2022/05/20 08:24:35;;;;;;;64.35;52.17;;;19.10;99.90;;;;;;4962098;28;20043;-73
2022/05/20 08:27:02;;;;;;;54.80;48.75;;;19.00;99.90;;;;;;4963837;28;20051;-74
2022/05/20 08:29:34;;;;;;;54.45;47.13;;;19.10;99.90;;;;;;4961804;28;20050;-72
2022/05/20 08:32:01;;;;;;;56.78;50.58;;;19.20;99.90;;;;;;4963864;28;20106;-72
2022/05/20 08:34:28;;;;;;;57.25;51.10;;;19.10;99.90;;;;;;4964191;28;20480;-72
2022/05/20 08:36:59;;;;;;;58.40;49.63;;;19.10;99.90;;;;;;4965053;28;20043;-71
2022/05/20 08:39:27;;;;;;;60.58;52.83;;;19.10;99.90;;;;;;4968041;28;20077;-73
2022/05/20 08:41:54;;;;;;;59.20;50.88;;;19.10;99.90;;;;;;4966653;28;20050;-72
2022/05/20 08:44:24;;;;;;;56.25;49.75;;;19.20;99.90;;;;;;4968406;28;20150;-72
2022/05/20 08:47:06;;;;;;;58.88;49.45;;;19.10;99.90;;;;;;4986153;28;20054;-72
2022/05/20 08:49:36;;;;;;;58.38;48.42;;;19.00;99.90;;;;;;4967797;28;20449;-72
2022/05/20 08:52:03;;;;;;;57.08;49.20;;;19.00;99.90;;;;;;4967406;28;20055;-73
2022/05/20 08:54:30;;;;;;;58.22;49.40;;;18.90;99.90;;;;;;4965614;28;20267;-72
2022/05/20 08:57:19;;;;;;;58.65;48.95;;;18.70;99.90;;;;;;4964354;28;20050;-72
2022/05/20 08:59:46;;;;;;;61.65;50.40;;;18.70;99.90;;;;;;4967868;28;20320;-73
2022/05/20 09:02:13;;;;;;;58.88;50.08;;;18.60;99.90;;;;;;4965780;28;20074;-72
2022/05/20 09:04:40;;;;;;;57.28;47.60;;;18.60;99.90;;;;;;4965159;28;20085;-73
2022/05/20 09:07:14;;;;;;;57.55;49.08;;;18.60;99.90;;;;;;4965568;28;20077;-73
2022/05/20 09:09:52;;;;;;;54.65;45.95;;;18.80;99.90;;;;;;4965795;28;20082;-72
2022/05/20 09:12:46;;;;;;;54.75;46.63;;;18.90;99.90;;;;;;4969859;28;20054;-73
2022/05/20 09:18:05;;;;;;;52.03;46.47;;;19.10;99.90;;;;;;4970737;28;20046;-71
2022/05/20 09:20:33;;;;;;;54.53;48.63;;;19.00;99.90;;;;;;4948930;28;20279;-71
2022/05/20 09:23:04;;;;;;;51.95;45.42;;;19.00;99.90;;;;;;4965960;28;20137;-72
2022/05/20 09:25:34;;;;;;;57.95;46.85;;;18.90;99.90;;;;;;4966411;28;20505;-73
2022/05/20 09:28:19;;;;;;;54.13;47.15;;;18.80;99.90;;;;;;4967657;28;20047;-72
2022/05/20 09:30:50;;;;;;;55.30;45.97;;;18.80;99.90;;;;;;4964117;28;20043;-74
2022/05/20 09:33:27;;;;;;;61.78;46.35;;;18.60;99.90;;;;;;4966967;28;20186;-73
2022/05/20 09:35:58;;;;;;;53.53;47.63;;;18.70;99.90;;;;;;4965366;28;20113;-73
2022/05/20 09:38:41;;;;;;;55.60;46.63;;;18.80;99.90;;;;;;4965013;28;20105;-73
2022/05/20 09:41:21;;;;;;;58.40;47.45;;;19.20;99.90;;;;;;4952507;28;20058;-74
2022/05/20 09:43:59;;;;;;;59.92;48.25;;;18.60;99.90;;;;;;4968849;28;20097;-73
2022/05/20 09:46:44;;;;;;;56.60;49.42;;;18.70;99.90;;;;;;4972275;28;20049;-73
2022/05/20 09:49:16;;;;;;;52.55;45.58;;;19.10;99.90;;;;;;4966259;28;20121;-73
2022/05/20 09:51:51;;;;;;;51.15;45.58;;;19.10;99.90;;;;;;4948183;28;20338;-73
2022/05/20 09:54:36;;;;;;;56.28;47.92;;;19.50;99.90;;;;;;4961793;28;20058;-73
2022/05/20 09:57:12;;;;;;;55.65;44.83;;;19.20;99.90;;;;;;4965312;28;20051;-74
2022/05/20 09:59:57;;;;;;;50.63;43.15;;;19.00;99.90;;;;;;4979490;28;20101;-72
2022/05/20 10:02:46;;;;;;;48.72;43.42;;;19.20;99.90;;;;;;4965814;28;20537;-73
2022/05/20 10:05:33;;;;;;;50.08;44.63;;;19.50;99.90;;;;;;4965671;28;20417;-73
2022/05/20 10:08:14;;;;;;;51.67;46.25;;;19.60;99.90;;;;;;4964096;28;20078;-73
2022/05/20 10:10:46;;;;;;;52.38;46.83;;;19.90;99.90;;;;;;4963522;28;20477;-74
2022/05/20 10:13:31;;;;;;;51.03;45.63;;;20.20;99.90;;;;;;4966865;28;20634;-73
2022/05/20 10:16:33;;;;;;;52.28;46.95;;;20.40;99.90;;;;;;4970041;28;20757;-75
2022/05/20 10:19:40;;;;;;;54.00;47.90;;;20.20;99.90;;;;;;4966577;28;20054;-73
2022/05/20 10:22:39;;;;;;;55.42;49.55;;;20.20;99.90;;;;;;4964109;28;20075;-72
2022/05/20 10:25:06;;;;;;;55.17;49.17;;;20.10;99.90;;;;;;4963352;28;20039;-73
2022/05/20 10:27:40;;;;;;;56.30;49.67;;;19.70;99.90;;;;;;4965204;28;20129;-74
2022/05/20 10:33:13;;;;;;;56.08;50.15;;;19.70;99.90;;;;;;4968421;28;20283;-79
2022/05/20 10:35:50;;;;;;;56.13;50.45;;;19.80;99.90;;;;;;4969284;28;20047;-78
2022/05/20 10:38:26;;;;;;;54.78;48.40;;;19.90;99.90;;;;;;4971380;28;20074;-78
2022/05/20 10:41:06;;;;;;;57.42;51.15;;;19.90;99.90;;;;;;4980414;28;20160;-78
2022/05/20 10:50:07;;;;;;;59.63;50.90;;;19.80;99.90;;;;;;4988818;28;20057;-79
2022/05/20 10:52:53;;;;;;;59.97;51.13;;;20.00;99.90;;;;;;4985295;28;20082;-78
2022/05/20 10:55:33;;;;;;;64.20;53.45;;;19.80;99.90;;;;;;4967579;28;20058;-78
2022/05/20 10:58:21;;;;;;;57.20;51.03;;;19.90;99.90;;;;;;4967494;28;20346;-78
2022/05/20 11:00:53;;;;;;;53.50;48.05;;;20.10;99.90;;;;;;4969208;28;20346;-78
2022/05/20 11:03:41;;;;;;;55.45;49.38;;;20.20;99.90;;;;;;4965935;28;20117;-79
2022/05/20 11:06:41;;;;;;;54.00;47.97;;;20.10;99.90;;;;;;4965153;28;20043;-79
2022/05/20 11:09:14;;;;;;;54.83;49.13;;;19.90;99.90;;;;;;4966987;28;20051;-79
2022/05/20 11:12:00;;;;;;;54.28;48.35;;;19.90;99.90;;;;;;4965406;28;20178;-77
2022/05/20 11:14:32;;;;;;;57.90;51.67;;;20.10;99.90;;;;;;4962871;28;20046;-79
2022/05/20 11:17:37;;;;;;;55.45;49.70;;;20.20;99.90;;;;;;4973041;28;20476;-80
2022/05/20 11:20:11;;;;;;;59.45;53.05;;;20.40;99.90;;;;;;4950290;28;20055;-79
2022/05/20 11:23:06;;;;;;;54.88;49.45;;;20.60;99.90;;;;;;4981648;28;20082;-78
2022/05/20 11:25:50;;;;;;;55.03;49.22;;;20.90;99.90;;;;;;4970331;28;20612;-79
2022/05/20 11:28:34;;;;;;;53.53;47.80;;;21.10;99.90;;;;;;4979111;28;20113;-79
2022/05/20 11:31:04;;;;;;;56.58;50.80;;;20.50;99.90;;;;;;4965940;28;20043;-79
2022/05/20 11:34:06;;;;;;;54.20;48.75;;;20.20;99.90;;;;;;4963817;28;20039;-79
2022/05/20 11:37:02;;;;;;;55.42;49.70;;;20.20;99.90;;;;;;4963873;28;20063;-78
2022/05/20 11:39:51;;;;;;;57.10;51.20;;;20.60;99.90;;;;;;4967446;28;20626;-78
2022/05/20 11:42:36;;;;;;;57.40;51.53;;;20.90;99.90;;;;;;4964901;28;20108;-78
2022/05/20 11:45:26;;;;;;;55.97;50.47;;;20.90;99.90;;;;;;4974728;28;20050;-79
2022/05/20 11:47:56;;;;;;;54.90;49.50;;;20.90;99.90;;;;;;4975180;28;20051;-79
2022/05/20 11:50:35;;;;;;;53.05;47.55;;;20.80;99.90;;;;;;4964607;28;20082;-80
2022/05/20 11:53:28;;;;;;;54.45;48.88;;;20.70;99.90;;;;;;4963702;28;20077;-79
2022/05/20 11:56:08;;;;;;;53.70;48.28;;;20.90;99.90;;;;;;4959489;28;20928;-78
2022/05/20 11:58:48;;;;;;;53.10;47.83;;;21.10;99.90;;;;;;4976724;28;20038;-79
2022/05/20 12:01:15;;;;;;;52.67;47.42;;;21.50;99.90;;;;;;4999649;28;20529;-79
2022/05/20 12:06:31;;;;;;;57.17;51.13;;;21.90;99.90;;;;;;4966947;28;20039;-79
2022/05/20 12:09:00;;;;;;;56.15;50.33;;;21.80;99.90;;;;;;4967447;28;20054;-77
2022/05/20 12:11:27;;;;;;;56.55;51.03;;;21.90;99.90;;;;;;4966703;28;20126;-79
2022/05/20 12:14:04;;;;;;;56.45;51.15;;;21.80;99.90;;;;;;4970024;28;20628;-78
2022/05/20 12:16:34;;;;;;;53.75;48.55;;;21.80;99.90;;;;;;4976791;28;20353;-79
2022/05/20 12:24:53;;;;;;;55.55;50.28;;;21.50;99.90;;;;;;4980057;28;20121;-78
2022/05/20 12:27:23;;;;;;;50.80;45.97;;;21.70;99.90;;;;;;4994674;28;20476;-78
2022/05/20 12:30:17;;;;;;;50.28;45.53;;;21.90;99.90;;;;;;4992276;28;20149;-79
2022/05/20 12:32:47;;;;;;;51.30;46.17;;;22.10;99.90;;;;;;4988548;28;20066;-78
2022/05/20 12:35:26;;;;;;;51.50;46.45;;;22.60;99.90;;;;;;4985914;28;20097;-78
2022/05/20 12:37:56;;;;;;;50.63;45.92;;;22.80;99.90;;;;;;4971785;28;20082;-78
2022/05/20 12:40:26;;;;;;;47.83;42.97;;;22.90;99.90;;;;;;4968325;28;20101;-77
2022/05/20 12:43:02;;;;;;;48.45;44.05;;;23.00;99.90;;;;;;4972628;28;20195;-78
2022/05/20 12:45:46;;;;;;;50.20;45.55;;;23.10;99.90;;;;;;4958993;28;20051;-79
2022/05/20 12:48:13;;;;;;;49.63;44.95;;;23.10;99.90;;;;;;4986855;28;20047;-77
2022/05/20 12:50:40;;;;;;;50.22;45.67;;;22.80;99.90;;;;;;4972414;28;20525;-79
2022/05/20 12:53:10;;;;;;;48.47;43.97;;;22.70;99.90;;;;;;4969866;28;20125;-77
2022/05/20 12:55:45;;;;;;;51.95;46.60;;;22.90;99.90;;;;;;4970065;28;20051;-78
2022/05/20 12:58:15;;;;;;;54.35;49.45;;;22.90;99.90;;;;;;4972309;28;20063;-79
2022/05/20 13:00:49;;;;;;;51.13;46.15;;;22.80;99.90;;;;;;4972201;28;20417;-78
2022/05/20 13:03:39;;;;;;;51.40;46.70;;;22.50;99.90;;;;;;4974622;28;20050;-78
2022/05/20 13:06:18;;;;;;;48.63;43.95;;;22.30;99.90;;;;;;4987364;28;20070;-79
2022/05/20 13:08:47;;;;;;;50.63;45.60;;;22.50;99.90;;;;;;4979877;28;20130;-78
2022/05/20 13:11:16;;;;;;;47.75;43.47;;;22.70;99.90;;;;;;4971705;28;20146;-79
2022/05/20 13:13:44;;;;;;;51.90;46.78;;;22.80;99.90;;;;;;5019123;22;20050;-73
2022/05/20 13:16:14;;;;;;;47.63;43.55;;;22.70;99.90;;;;;;5025932;28;20044;-73
2022/05/20 13:18:43;;;;;;;51.92;46.83;;;22.70;99.90;;;;;;5041544;28;20396;-73
2022/05/20 13:21:18;;;;;;;51.00;46.35;;;22.60;99.90;;;;;;5015889;28;20041;-73
2022/05/20 13:23:48;;;;;;;52.58;47.78;;;22.10;99.90;;;;;;5048535;28;20458;-72
2022/05/20 13:26:25;;;;;;;51.38;46.35;;;21.90;99.90;;;;;;5029704;28;20109;-73
2022/05/20 13:28:58;;;;;;;53.97;48.67;;;21.80;99.90;;;;;;5030461;28;20301;-73
2022/05/20 13:31:26;;;;;;;52.97;47.78;;;21.80;99.90;;;;;;5027381;28;20072;-73
2022/05/20 13:33:53;;;;;;;50.45;45.72;;;21.80;99.90;;;;;;5028952;28;20121;-73